sensor_id;sensor_type;location;lat;lon;timestamp;pressure;altitude;pressure_sealevel;temperature;humidity
28079;BME280;15388;42.238;24.684;2023-04-30T00:00:11;99162.88;;;14.12;100.00
28079;BME280;15388;42.238;24.684;2023-04-30T00:02:37;99165.69;;;14.19;100.00
28079;BME280;15388;42.238;24.684;2023-04-30T00:05:02;99166.03;;;14.24;100.00
28079;BME280;15388;42.238;24.684;2023-04-30T00:07:28;99168.22;;;14.29;100.00
28079;BME280;15388;42.238;24.684;2023-04-30T00:09:53;99169.38;;;14.35;100.00
28079;BME280;15388;42.238;24.684;2023-04-30T00:12:18;99175.72;;;14.34;100.00
28079;BME280;15388;42.238;24.684;2023-04-30T00:14:44;99173.38;;;14.39;99.90
28079;BME280;15388;42.238;24.684;2023-04-30T00:17:09;99171.38;;;14.41;98.62
28079;BME280;15388;42.238;24.684;2023-04-30T00:19:35;99168.16;;;14.46;97.88
28079;BME280;15388;42.238;24.684;2023-04-30T00:22:00;99172.00;;;14.51;97.29
28079;BME280;15388;42.238;24.684;2023-04-30T00:24:27;99169.16;;;14.53;97.33
28079;BME280;15388;42.238;24.684;2023-04-30T00:26:52;99167.16;;;14.55;97.54
28079;BME280;15388;42.238;24.684;2023-04-30T00:29:17;99173.34;;;14.56;96.74
28079;BME280;15388;42.238;24.684;2023-04-30T00:31:43;99173.34;;;14.56;96.67
28079;BME280;15388;42.238;24.684;2023-04-30T00:34:08;99173.81;;;14.59;96.37
28079;BME280;15388;42.238;24.684;2023-04-30T00:36:34;99172.97;;;14.59;96.09
28079;BME280;15388;42.238;24.684;2023-04-30T00:38:59;99171.16;;;14.59;96.00
28079;BME280;15388;42.238;24.684;2023-04-30T00:41:27;99173.34;;;14.56;96.69
28079;BME280;15388;42.238;24.684;2023-04-30T00:43:53;99148.63;;;14.37;96.56
28079;BME280;15388;42.238;24.684;2023-04-30T00:46:18;99168.00;;;14.56;96.70
28079;BME280;15388;42.238;24.684;2023-04-30T00:48:44;99167.31;;;14.54;97.27
28079;BME280;15388;42.238;24.684;2023-04-30T00:51:09;99156.31;;;14.48;96.72
28079;BME280;15388;42.238;24.684;2023-04-30T00:53:37;99162.34;;;14.42;96.88
28079;BME280;15388;42.238;24.684;2023-04-30T00:56:03;99156.47;;;14.38;97.34
28079;BME280;15388;42.238;24.684;2023-04-30T00:58:28;99156.34;;;14.32;98.41
28079;BME280;15388;42.238;24.684;2023-04-30T01:00:54;99153.81;;;14.30;99.01
28079;BME280;15388;42.238;24.684;2023-04-30T01:03:19;99159.66;;;14.34;99.81
28079;BME280;15388;42.238;24.684;2023-04-30T01:05:46;99157.31;;;14.39;98.92
28079;BME280;15388;42.238;24.684;2023-04-30T01:08:12;99159.66;;;14.34;99.92
28079;BME280;15388;42.238;24.684;2023-04-30T01:10:43;99151.63;;;14.34;100.00
28079;BME280;15388;42.238;24.684;2023-04-30T01:13:32;99149.31;;;14.31;100.00
28079;BME280;15388;42.238;24.684;2023-04-30T01:16:24;99156.50;;;14.30;100.00
28079;BME280;15388;42.238;24.684;2023-04-30T01:18:58;99153.31;;;14.26;100.00
28079;BME280;15388;42.238;24.684;2023-04-30T01:21:26;99161.84;;;14.30;100.00
28079;BME280;15388;42.238;24.684;2023-04-30T01:26:59;99153.34;;;13.93;100.00
28079;BME280;15388;42.238;24.684;2023-04-30T01:29:31;99159.22;;;13.97;100.00
28079;BME280;15388;42.238;24.684;2023-04-30T01:31:58;99150.34;;;14.05;100.00
28079;BME280;15388;42.238;24.684;2023-04-30T01:34:24;99155.69;;;14.05;100.00
28079;BME280;15388;42.238;24.684;2023-04-30T01:42:21;99150.34;;;14.05;100.00
28079;BME280;15388;42.238;24.684;2023-04-30T01:52:59;99146.69;;;14.06;100.00
28079;BME280;15388;42.238;24.684;2023-04-30T01:55:40;99139.00;;;14.03;100.00
28079;BME280;15388;42.238;24.684;2023-04-30T01:58:10;99136.16;;;14.04;100.00
28079;BME280;15388;42.238;24.684;2023-04-30T02:00:36;99143.00;;;14.07;98.48
28079;BME280;15388;42.238;24.684;2023-04-30T02:03:02;99138.81;;;14.04;97.80
28079;BME280;15388;42.238;24.684;2023-04-30T02:05:27;99147.00;;;14.11;96.87
28079;BME280;15388;42.238;24.684;2023-04-30T02:07:53;99140.63;;;14.12;97.26
28079;BME280;15388;42.238;24.684;2023-04-30T02:10:21;99156.69;;;14.12;97.87
28079;BME280;15388;42.238;24.684;2023-04-30T02:12:47;99153.69;;;14.07;98.43
28079;BME280;15388;42.238;24.684;2023-04-30T02:15:12;99156.38;;;13.98;99.54
28079;BME280;15388;42.238;24.684;2023-04-30T02:17:38;99152.38;;;13.86;99.07
28079;BME280;15388;42.238;24.684;2023-04-30T02:20:04;99155.03;;;13.78;99.47
28079;BME280;15388;42.238;24.684;2023-04-30T02:22:29;99154.03;;;13.79;99.59
28079;BME280;15388;42.238;24.684;2023-04-30T02:24:54;99149.69;;;13.78;100.00
28079;BME280;15388;42.238;24.684;2023-04-30T02:27:22;99158.72;;;13.77;100.00
28079;BME280;15388;42.238;24.684;2023-04-30T02:29:48;99148.69;;;13.70;100.00
28079;BME280;15388;42.238;24.684;2023-04-30T02:32:13;99150.34;;;13.71;100.00
28079;BME280;15388;42.238;24.684;2023-04-30T02:34:39;99153.72;;;13.73;100.00
28079;BME280;15388;42.238;24.684;2023-04-30T02:37:05;99153.22;;;13.78;100.00
28079;BME280;15388;42.238;24.684;2023-04-30T02:39:31;99149.69;;;13.78;100.00
28079;BME280;15388;42.238;24.684;2023-04-30T02:41:56;99145.03;;;13.80;100.00
28079;BME280;15388;42.238;24.684;2023-04-30T02:44:23;99152.84;;;13.81;100.00
28079;BME280;15388;42.238;24.684;2023-04-30T02:46:48;99139.00;;;13.78;100.00
28079;BME280;15388;42.238;24.684;2023-04-30T02:49:13;99149.69;;;13.78;100.00
28079;BME280;15388;42.238;24.684;2023-04-30T02:51:39;99146.34;;;13.75;100.00
28079;BME280;15388;42.238;24.684;2023-04-30T02:54:05;99147.34;;;13.74;100.00
28079;BME280;15388;42.238;24.684;2023-04-30T02:56:30;99150.88;;;13.75;100.00
28079;BME280;15388;42.238;24.684;2023-04-30T02:58:55;99142.84;;;13.75;100.00
28079;BME280;15388;42.238;24.684;2023-04-30T03:01:21;99141.34;;;13.72;100.00
28079;BME280;15388;42.238;24.684;2023-04-30T03:03:46;99146.19;;;13.69;100.00
28079;BME280;15388;42.238;24.684;2023-04-30T03:06:12;99151.03;;;13.65;100.00
28079;BME280;15388;42.238;24.684;2023-04-30T03:08:37;99149.50;;;13.62;100.00
28079;BME280;15388;42.238;24.684;2023-04-30T03:11:03;99149.69;;;13.61;100.00
28079;BME280;15388;42.238;24.684;2023-04-30T03:13:29;99151.69;;;13.59;100.00
28079;BME280;15388;42.238;24.684;2023-04-30T03:16:02;99162.38;;;13.59;99.48
28079;BME280;15388;42.238;24.684;2023-04-30T03:18:31;99160.50;;;13.43;100.00
28079;BME280;15388;42.238;24.684;2023-04-30T03:20:57;99164.31;;;13.32;100.00
28079;BME280;15388;42.238;24.684;2023-04-30T03:23:27;99165.63;;;13.19;100.00
28079;BME280;15388;42.238;24.684;2023-04-30T03:25:53;99167.28;;;13.20;100.00
28079;BME280;15388;42.238;24.684;2023-04-30T03:28:18;99170.44;;;13.16;100.00
28079;BME280;15388;42.238;24.684;2023-04-30T03:30:44;99173.84;;;12.83;100.00
28079;BME280;15388;42.238;24.684;2023-04-30T03:33:09;99174.16;;;12.80;100.00
28079;BME280;15388;42.238;24.684;2023-04-30T03:35:34;99181.84;;;12.83;100.00
28079;BME280;15388;42.238;24.684;2023-04-30T03:38:01;99187.53;;;12.88;100.00
28079;BME280;15388;42.238;24.684;2023-04-30T03:40:26;99184.25;;;12.94;100.00
28079;BME280;15388;42.238;24.684;2023-04-30T03:42:52;99186.06;;;12.94;100.00
28079;BME280;15388;42.238;24.684;2023-04-30T03:45:17;99196.75;;;12.94;100.00
28079;BME280;15388;42.238;24.684;2023-04-30T03:47:43;99191.94;;;12.97;100.00
28079;BME280;15388;42.238;24.684;2023-04-30T03:50:09;99191.94;;;12.97;100.00
28079;BME280;15388;42.238;24.684;2023-04-30T03:52:35;99192.25;;;12.94;100.00
28079;BME280;15388;42.238;24.684;2023-04-30T03:55:02;99187.44;;;12.98;100.00
28079;BME280;15388;42.238;24.684;2023-04-30T03:57:27;99198.63;;;13.02;100.00
28079;BME280;15388;42.238;24.684;2023-04-30T03:59:53;99200.28;;;13.03;100.00
28079;BME280;15388;42.238;24.684;2023-04-30T04:02:18;99202.63;;;12.97;100.00
28079;BME280;15388;42.238;24.684;2023-04-30T04:04:45;99208.63;;;12.99;100.00
28079;BME280;15388;42.238;24.684;2023-04-30T04:07:11;99204.28;;;12.98;100.00
28079;BME280;15388;42.238;24.684;2023-04-30T04:09:37;99183.91;;;12.89;100.00
28079;BME280;15388;42.238;24.684;2023-04-30T04:12:02;99202.63;;;12.97;100.00
28079;BME280;15388;42.238;24.684;2023-04-30T04:14:28;99206.94;;;12.90;100.00
28079;BME280;15388;42.238;24.684;2023-04-30T04:16:53;99206.56;;;12.85;100.00
28079;BME280;15388;42.238;24.684;2023-04-30T04:19:18;99206.84;;;12.73;100.00
28079;BME280;15388;42.238;24.684;2023-04-30T04:21:44;99215.59;;;12.92;100.00
28079;BME280;15388;42.238;24.684;2023-04-30T04:24:09;99212.66;;;13.04;100.00
28079;BME280;15388;42.238;24.684;2023-04-30T04:26:35;99208.53;;;13.18;100.00
28079;BME280;15388;42.238;24.684;2023-04-30T04:29:04;99207.03;;;13.23;100.00
28079;BME280;15388;42.238;24.684;2023-04-30T04:31:30;99211.75;;;13.30;100.00
28079;BME280;15388;42.238;24.684;2023-04-30T04:33:59;99216.09;;;13.39;100.00
28079;BME280;15388;42.238;24.684;2023-04-30T04:36:27;99211.47;;;13.49;100.00
28079;BME280;15388;42.238;24.684;2023-04-30T04:38:55;99200.78;;;13.49;100.00
28079;BME280;15388;42.238;24.684;2023-04-30T04:41:22;99212.66;;;13.55;100.00
28079;BME280;15388;42.238;24.684;2023-04-30T04:43:48;99209.88;;;13.65;100.00
28079;BME280;15388;42.238;24.684;2023-04-30T04:46:14;99213.41;;;13.31;100.00
28079;BME280;15388;42.238;24.684;2023-04-30T04:48:41;99215.13;;;13.48;100.00
28079;BME280;15388;42.238;24.684;2023-04-30T04:51:06;99218.22;;;13.70;100.00
28079;BME280;15388;42.238;24.684;2023-04-30T04:53:31;99218.25;;;13.87;100.00
28079;BME280;15388;42.238;24.684;2023-04-30T04:55:57;99216.25;;;14.06;100.00
28079;BME280;15388;42.238;24.684;2023-04-30T04:58:22;99212.88;;;14.20;95.58
28079;BME280;15388;42.238;24.684;2023-04-30T05:00:48;99218.91;;;14.31;92.16
28079;BME280;15388;42.238;24.684;2023-04-30T05:03:13;99218.88;;;14.47;85.80
28079;BME280;15388;42.238;24.684;2023-04-30T05:05:39;99217.84;;;14.57;81.21
28079;BME280;15388;42.238;24.684;2023-04-30T05:08:04;99222.97;;;14.75;78.54
28079;BME280;15388;42.238;24.684;2023-04-30T05:10:29;99223.50;;;14.87;75.17
28079;BME280;15388;42.238;24.684;2023-04-30T05:12:55;99234.50;;;15.00;71.55
28079;BME280;15388;42.238;24.684;2023-04-30T05:15:20;99233.09;;;15.13;69.16
28079;BME280;15388;42.238;24.684;2023-04-30T05:17:46;99232.75;;;15.16;65.00
28079;BME280;15388;42.238;24.684;2023-04-30T05:20:12;99239.31;;;15.13;63.81
28079;BME280;15388;42.238;24.684;2023-04-30T05:22:37;99238.47;;;15.13;66.12
28079;BME280;15388;42.238;24.684;2023-04-30T05:25:03;99237.31;;;15.15;66.04
28079;BME280;15388;42.238;24.684;2023-04-30T05:27:29;99238.75;;;15.26;66.66
28079;BME280;15388;42.238;24.684;2023-04-30T05:29:54;99234.00;;;15.37;67.35
28079;BME280;15388;42.238;24.684;2023-04-30T05:32:21;99236.16;;;15.41;68.55
28079;BME280;15388;42.238;24.684;2023-04-30T05:34:47;99234.28;;;15.50;68.10
28079;BME280;15388;42.238;24.684;2023-04-30T05:37:12;99238.56;;;15.60;65.28
28079;BME280;15388;42.238;24.684;2023-04-30T05:39:38;99236.38;;;15.63;60.95
28079;BME280;15388;42.238;24.684;2023-04-30T05:42:04;99233.34;;;15.66;60.48
28079;BME280;15388;42.238;24.684;2023-04-30T05:44:29;99239.19;;;15.70;61.72
28079;BME280;15388;42.238;24.684;2023-04-30T05:46:55;99237.16;;;15.72;63.49
28079;BME280;15388;42.238;24.684;2023-04-30T05:49:22;99234.41;;;15.81;65.12
28079;BME280;15388;42.238;24.684;2023-04-30T05:51:47;99236.41;;;15.87;64.79
28079;BME280;15388;42.238;24.684;2023-04-30T05:54:12;99245.06;;;15.97;63.65
28079;BME280;15388;42.238;24.684;2023-04-30T05:56:38;99248.25;;;15.92;61.57
28079;BME280;15388;42.238;24.684;2023-04-30T05:59:03;99251.25;;;15.98;63.72
28079;BME280;15388;42.238;24.684;2023-04-30T06:01:28;99246.38;;;16.01;63.51
28079;BME280;15388;42.238;24.684;2023-04-30T06:03:54;99252.03;;;16.07;65.13
28079;BME280;15388;42.238;24.684;2023-04-30T06:06:19;99251.00;;;16.08;65.87
28079;BME280;15388;42.238;24.684;2023-04-30T06:08:45;99244.81;;;16.07;66.92
28079;BME280;15388;42.238;24.684;2023-04-30T06:11:12;99237.19;;;16.19;66.24
28079;BME280;15388;42.238;24.684;2023-04-30T06:13:38;99240.81;;;16.26;65.42
28079;BME280;15388;42.238;24.684;2023-04-30T06:16:04;99241.09;;;16.32;66.41
28079;BME280;15388;42.238;24.684;2023-04-30T06:18:31;99231.28;;;16.39;67.31
28079;BME280;15388;42.238;24.684;2023-04-30T06:20:56;99234.25;;;16.44;67.96
28079;BME280;15388;42.238;24.684;2023-04-30T06:23:21;99241.19;;;16.38;68.66
28079;BME280;15388;42.238;24.684;2023-04-30T06:25:47;99234.09;;;16.61;68.88
28079;BME280;15388;42.238;24.684;2023-04-30T06:28:12;99241.34;;;16.75;69.16
28079;BME280;15388;42.238;24.684;2023-04-30T06:30:38;99241.34;;;16.75;65.84
28079;BME280;15388;42.238;24.684;2023-04-30T06:33:03;99245.69;;;16.61;65.77
28079;BME280;15388;42.238;24.684;2023-04-30T06:35:29;99237.88;;;16.36;66.75
28079;BME280;15388;42.238;24.684;2023-04-30T06:37:54;99233.34;;;16.52;65.46
28079;BME280;15388;42.238;24.684;2023-04-30T06:40:20;99241.63;;;16.65;63.82
28079;BME280;15388;42.238;24.684;2023-04-30T06:42:45;99235.59;;;16.78;63.78
28079;BME280;15388;42.238;24.684;2023-04-30T06:45:11;99236.53;;;16.86;61.70
28079;BME280;15388;42.238;24.684;2023-04-30T06:47:39;99225.59;;;16.87;62.84
28079;BME280;15388;42.238;24.684;2023-04-30T06:50:06;99228.91;;;17.04;65.08
28079;BME280;15388;42.238;24.684;2023-04-30T06:52:32;99227.00;;;17.13;64.88
28079;BME280;15388;42.238;24.684;2023-04-30T06:54:58;99224.66;;;17.25;65.12
28079;BME280;15388;42.238;24.684;2023-04-30T06:57:24;99226.53;;;17.47;64.31
28079;BME280;15388;42.238;24.684;2023-04-30T06:59:51;99220.78;;;17.50;65.12
28079;BME280;15388;42.238;24.684;2023-04-30T07:02:17;99220.59;;;17.51;65.14
28079;BME280;15388;42.238;24.684;2023-04-30T07:04:42;99210.38;;;17.62;63.65
28079;BME280;15388;42.238;24.684;2023-04-30T07:07:07;99211.72;;;17.73;66.41
28079;BME280;15388;42.238;24.684;2023-04-30T07:09:33;99211.66;;;17.88;67.09
28079;BME280;15388;42.238;24.684;2023-04-30T07:11:59;99213.31;;;17.89;62.41
28079;BME280;15388;42.238;24.684;2023-04-30T07:14:25;99221.00;;;17.92;64.42
28079;BME280;15388;42.238;24.684;2023-04-30T07:16:50;99221.72;;;18.01;64.50
28079;BME280;15388;42.238;24.684;2023-04-30T07:19:15;99223.44;;;18.08;61.97
28079;BME280;15388;42.238;24.684;2023-04-30T07:21:42;99224.38;;;18.16;61.27
28079;BME280;15388;42.238;24.684;2023-04-30T07:24:07;99218.59;;;18.19;63.77
28079;BME280;15388;42.238;24.684;2023-04-30T07:26:33;99215.75;;;18.27;63.80
28079;BME280;15388;42.238;24.684;2023-04-30T07:28:58;99219.28;;;18.28;62.37
28079;BME280;15388;42.238;24.684;2023-04-30T07:31:24;99221.00;;;18.36;63.76
28079;BME280;15388;42.238;24.684;2023-04-30T07:33:50;99208.00;;;18.46;63.06
28079;BME280;15388;42.238;24.684;2023-04-30T07:36:16;99211.00;;;18.58;60.79
28079;BME280;15388;42.238;24.684;2023-04-30T07:38:42;99216.25;;;18.38;61.43
28079;BME280;15388;42.238;24.684;2023-04-30T07:41:07;99214.09;;;18.55;62.56
28079;BME280;15388;42.238;24.684;2023-04-30T07:43:34;99214.38;;;18.67;60.88
28079;BME280;15388;42.238;24.684;2023-04-30T07:46:00;99218.50;;;18.63;61.82
28079;BME280;15388;42.238;24.684;2023-04-30T07:48:25;99223.00;;;18.55;60.52
28079;BME280;15388;42.238;24.684;2023-04-30T07:50:51;99220.06;;;18.50;61.15
28079;BME280;15388;42.238;24.684;2023-04-30T07:53:19;99218.72;;;18.68;58.78
28079;BME280;15388;42.238;24.684;2023-04-30T07:55:45;99222.75;;;18.79;58.37
28079;BME280;15388;42.238;24.684;2023-04-30T07:58:10;99212.47;;;18.96;58.71
28079;BME280;15388;42.238;24.684;2023-04-30T08:00:36;99214.63;;;19.14;57.99
28079;BME280;15388;42.238;24.684;2023-04-30T08:03:01;99213.03;;;19.27;56.31
28079;BME280;15388;42.238;24.684;2023-04-30T08:05:27;99221.38;;;19.39;59.05
28079;BME280;15388;42.238;24.684;2023-04-30T08:07:52;99218.03;;;19.30;55.88
28079;BME280;15388;42.238;24.684;2023-04-30T08:10:17;99201.66;;;19.31;57.46
28079;BME280;15388;42.238;24.684;2023-04-30T08:12:43;99210.81;;;19.44;57.71
28079;BME280;15388;42.238;24.684;2023-04-30T08:15:09;99201.91;;;19.50;55.27
28079;BME280;15388;42.238;24.684;2023-04-30T08:17:34;99203.19;;;19.68;55.48
28079;BME280;15388;42.238;24.684;2023-04-30T08:20:01;99205.47;;;19.71;54.53
28079;BME280;15388;42.238;24.684;2023-04-30T08:22:26;99206.13;;;19.80;55.19
28079;BME280;15388;42.238;24.684;2023-04-30T08:24:52;99198.22;;;19.92;54.69
28079;BME280;15388;42.238;24.684;2023-04-30T08:27:20;99199.09;;;20.13;54.21
28079;BME280;15388;42.238;24.684;2023-04-30T08:29:45;99194.09;;;20.23;52.74
28079;BME280;15388;42.238;24.684;2023-04-30T08:32:11;99197.00;;;20.08;50.92
28079;BME280;15388;42.238;24.684;2023-04-30T08:34:36;99191.19;;;20.31;52.04
28079;BME280;15388;42.238;24.684;2023-04-30T08:37:02;99188.03;;;20.61;51.87
28079;BME280;15388;42.238;24.684;2023-04-30T08:39:27;99187.41;;;20.59;48.81
28079;BME280;15388;42.238;24.684;2023-04-30T08:41:56;99192.97;;;20.78;50.21
28079;BME280;15388;42.238;24.684;2023-04-30T08:44:26;99186.13;;;20.89;50.35
28079;BME280;15388;42.238;24.684;2023-04-30T08:46:53;99179.00;;;20.95;49.53
28079;BME280;15388;42.238;24.684;2023-04-30T08:49:20;99171.81;;;21.21;48.59
28079;BME280;15388;42.238;24.684;2023-04-30T08:51:46;99176.91;;;21.43;46.39
28079;BME280;15388;42.238;24.684;2023-04-30T08:54:12;99175.50;;;21.33;44.51
28079;BME280;15388;42.238;24.684;2023-04-30T08:56:39;99178.06;;;21.60;44.27
28079;BME280;15388;42.238;24.684;2023-04-30T08:59:05;99173.94;;;21.90;44.22
28079;BME280;15388;42.238;24.684;2023-04-30T09:01:31;99172.56;;;22.06;43.65
28079;BME280;15388;42.238;24.684;2023-04-30T09:03:56;99178.78;;;21.81;40.68
28079;BME280;15388;42.238;24.684;2023-04-30T09:06:22;99161.16;;;21.97;42.42
28079;BME280;15388;42.238;24.684;2023-04-30T09:08:48;99165.72;;;22.22;42.61
28079;BME280;15388;42.238;24.684;2023-04-30T09:11:26;99158.31;;;22.55;42.22
28079;BME280;15388;42.238;24.684;2023-04-30T09:13:53;99160.38;;;22.60;39.12
28079;BME280;15388;42.238;24.684;2023-04-30T09:16:20;99153.19;;;22.47;39.61
28079;BME280;15388;42.238;24.684;2023-04-30T09:18:47;99152.56;;;22.45;38.51
28079;BME280;15388;42.238;24.684;2023-04-30T09:21:14;99147.94;;;22.71;39.66
28079;BME280;15388;42.238;24.684;2023-04-30T09:24:02;99150.78;;;22.95;38.87
28079;BME280;15388;42.238;24.684;2023-04-30T09:26:34;99140.81;;;23.07;38.00
28079;BME280;15388;42.238;24.684;2023-04-30T09:29:01;99147.13;;;23.20;38.53
28079;BME280;15388;42.238;24.684;2023-04-30T09:31:32;99137.06;;;23.08;36.71
28079;BME280;15388;42.238;24.684;2023-04-30T09:33:58;99134.16;;;23.22;38.07
28079;BME280;15388;42.238;24.684;2023-04-30T09:36:23;99129.75;;;23.09;38.77
28079;BME280;15388;42.238;24.684;2023-04-30T09:38:49;99136.09;;;23.02;39.54
28079;BME280;15388;42.238;24.684;2023-04-30T09:41:22;99129.94;;;22.95;38.97
28079;BME280;15388;42.238;24.684;2023-04-30T09:43:48;99141.47;;;22.72;40.16
28079;BME280;15388;42.238;24.684;2023-04-30T09:46:14;99126.03;;;22.72;37.79
28079;BME280;15388;42.238;24.684;2023-04-30T09:48:40;99121.94;;;22.44;38.44
28079;BME280;15388;42.238;24.684;2023-04-30T09:51:06;99120.78;;;22.14;39.12
28079;BME280;15388;42.238;24.684;2023-04-30T09:53:32;99119.72;;;22.16;38.91
28079;BME280;15388;42.238;24.684;2023-04-30T09:56:05;99123.63;;;21.69;42.02
28079;BME280;15388;42.238;24.684;2023-04-30T09:58:35;99117.47;;;22.12;40.72
28079;BME280;15388;42.238;24.684;2023-04-30T10:01:04;99119.75;;;21.90;41.72
28079;BME280;15388;42.238;24.684;2023-04-30T10:03:31;99115.16;;;21.58;42.37
28079;BME280;15388;42.238;24.684;2023-04-30T10:05:58;99107.31;;;21.18;43.53
28079;BME280;15388;42.238;24.684;2023-04-30T10:08:27;99115.28;;;21.12;43.19
28079;BME280;15388;42.238;24.684;2023-04-30T10:10:59;99116.66;;;21.54;42.54
28079;BME280;15388;42.238;24.684;2023-04-30T10:13:30;99112.38;;;21.72;42.57
28079;BME280;15388;42.238;24.684;2023-04-30T10:15:58;99099.22;;;22.01;42.78
28079;BME280;15388;42.238;24.684;2023-04-30T10:18:28;99100.41;;;22.12;43.07
28079;BME280;15388;42.238;24.684;2023-04-30T10:20:56;99103.56;;;22.27;40.51
28079;BME280;15388;42.238;24.684;2023-04-30T10:23:23;99097.63;;;22.37;39.40
28079;BME280;15388;42.238;24.684;2023-04-30T10:25:50;99097.63;;;22.37;40.84
28079;BME280;15388;42.238;24.684;2023-04-30T10:28:15;99097.56;;;22.63;41.54
28079;BME280;15388;42.238;24.684;2023-04-30T10:30:41;99104.41;;;22.84;40.75
28079;BME280;15388;42.238;24.684;2023-04-30T10:33:28;99101.78;;;22.77;39.96
28079;BME280;15388;42.238;24.684;2023-04-30T10:36:02;99100.94;;;22.77;39.89
28079;BME280;15388;42.238;24.684;2023-04-30T10:38:30;99100.03;;;22.83;40.45
28079;BME280;15388;42.238;24.684;2023-04-30T10:40:56;99087.06;;;22.85;39.57
28079;BME280;15388;42.238;24.684;2023-04-30T10:43:23;99093.00;;;22.94;38.91
28079;BME280;15388;42.238;24.684;2023-04-30T10:45:49;99087.03;;;23.04;38.66
28079;BME280;15388;42.238;24.684;2023-04-30T10:48:15;99092.31;;;22.99;38.90
28079;BME280;15388;42.238;24.684;2023-04-30T10:50:49;99088.16;;;22.65;39.48
28079;BME280;15388;42.238;24.684;2023-04-30T10:53:18;99088.16;;;22.65;40.50
28079;BME280;15388;42.238;24.684;2023-04-30T10:58:29;99084.78;;;23.01;39.41
28079;BME280;15388;42.238;24.684;2023-04-30T11:01:14;99088.81;;;23.10;37.97
28079;BME280;15388;42.238;24.684;2023-04-30T11:03:47;99082.00;;;23.20;39.29
28079;BME280;15388;42.238;24.684;2023-04-30T11:06:48;99076.59;;;23.20;39.19
28079;BME280;15388;42.238;24.684;2023-04-30T11:09:16;99070.69;;;23.23;38.10
28079;BME280;15388;42.238;24.684;2023-04-30T11:11:43;99066.00;;;23.30;38.08
28079;BME280;15388;42.238;24.684;2023-04-30T11:14:10;99064.88;;;23.50;36.98
28079;BME280;15388;42.238;24.684;2023-04-30T11:16:36;99066.78;;;23.61;37.60
28079;BME280;15388;42.238;24.684;2023-04-30T11:19:09;99064.06;;;24.09;37.75
28079;BME280;15388;42.238;24.684;2023-04-30T11:22:13;99060.97;;;24.41;36.25
28079;BME280;15388;42.238;24.684;2023-04-30T11:25:03;99054.00;;;23.98;35.74
28079;BME280;15388;42.238;24.684;2023-04-30T11:27:34;99057.34;;;23.76;37.23
28079;BME280;15388;42.238;24.684;2023-04-30T11:30:02;99056.13;;;23.05;37.68
28079;BME280;15388;42.238;24.684;2023-04-30T11:32:34;99053.97;;;22.95;38.81
28079;BME280;15388;42.238;24.684;2023-04-30T11:35:00;99044.56;;;23.64;39.90
28079;BME280;15388;42.238;24.684;2023-04-30T11:39:54;99043.00;;;24.40;38.32
28079;BME280;15388;42.238;24.684;2023-04-30T11:42:20;99034.31;;;24.67;37.58
28079;BME280;15388;42.238;24.684;2023-04-30T11:44:46;99033.81;;;25.00;36.72
28079;BME280;15388;42.238;24.684;2023-04-30T11:47:12;99033.00;;;25.16;36.87
28079;BME280;15388;42.238;24.684;2023-04-30T11:49:38;99036.56;;;25.34;36.38
28079;BME280;15388;42.238;24.684;2023-04-30T11:52:04;99037.72;;;25.55;35.48
28079;BME280;15388;42.238;24.684;2023-04-30T11:54:31;99031.28;;;25.79;34.54
28079;BME280;15388;42.238;24.684;2023-04-30T11:56:56;99032.97;;;25.80;33.58
28079;BME280;15388;42.238;24.684;2023-04-30T11:59:28;99022.91;;;24.71;32.09
28079;BME280;15388;42.238;24.684;2023-04-30T12:01:53;99023.69;;;24.54;32.99
28079;BME280;15388;42.238;24.684;2023-04-30T12:04:21;99014.56;;;24.60;33.89
28079;BME280;15388;42.238;24.684;2023-04-30T12:06:47;99020.78;;;24.73;34.60
28079;BME280;15388;42.238;24.684;2023-04-30T12:09:12;99021.38;;;24.46;34.36
28079;BME280;15388;42.238;24.684;2023-04-30T12:11:37;99031.44;;;24.33;34.26
28079;BME280;15388;42.238;24.684;2023-04-30T12:16:48;99051.25;;;23.26;43.73
28079;BME280;15388;42.238;24.684;2023-04-30T12:19:14;99050.66;;;22.62;45.99
28079;BME280;15388;42.238;24.684;2023-04-30T12:21:42;99034.84;;;22.59;47.53
28079;BME280;15388;42.238;24.684;2023-04-30T12:24:12;99035.34;;;22.49;49.46
28079;BME280;15388;42.238;24.684;2023-04-30T12:26:38;99022.78;;;22.36;49.50
28079;BME280;15388;42.238;24.684;2023-04-30T12:31:36;99015.78;;;22.29;57.50
28079;BME280;15388;42.238;24.684;2023-04-30T12:34:08;99009.81;;;22.38;58.00
28079;BME280;15388;42.238;24.684;2023-04-30T12:36:34;99011.91;;;22.55;55.86
28079;BME280;15388;42.238;24.684;2023-04-30T12:39:11;99005.41;;;22.75;54.19
28079;BME280;15388;42.238;24.684;2023-04-30T12:41:42;99004.78;;;22.92;49.71
28079;BME280;15388;42.238;24.684;2023-04-30T12:44:24;99014.81;;;23.03;49.32
28079;BME280;15388;42.238;24.684;2023-04-30T12:46:51;99013.56;;;23.18;49.83
28079;BME280;15388;42.238;24.684;2023-04-30T12:51:50;99024.91;;;22.84;48.53
28079;BME280;15388;42.238;24.684;2023-04-30T12:54:30;99023.72;;;22.80;49.54
28079;BME280;15388;42.238;24.684;2023-04-30T12:56:58;99020.22;;;22.60;48.03
28079;BME280;15388;42.238;24.684;2023-04-30T12:59:26;99021.13;;;22.54;48.33
28079;BME280;15388;42.238;24.684;2023-04-30T13:01:51;99013.28;;;22.46;49.96
28079;BME280;15388;42.238;24.684;2023-04-30T13:04:18;99008.34;;;22.43;50.67
28079;BME280;15388;42.238;24.684;2023-04-30T13:06:43;99009.69;;;22.33;51.23
28079;BME280;15388;42.238;24.684;2023-04-30T13:09:09;99014.44;;;22.19;48.20
28079;BME280;15388;42.238;24.684;2023-04-30T13:11:34;99043.31;;;21.88;49.17
28079;BME280;15388;42.238;24.684;2023-04-30T13:14:00;99073.59;;;21.20;51.56
28079;BME280;15388;42.238;24.684;2023-04-30T13:16:25;99098.72;;;20.29;59.05